Time;durP1;ratioP1;P1;durP2;ratioP2;P2;SDS_P1;SDS_P2;PMS_P1;PMS_P2;Temp;Humidity;BMP_temperature;BMP_pressure;BME280_temperature;BME280_humidity;BME280_pressure;Samples;Min_cycle;Max_cycle;Signal;HPM_P1;HPM_P2
2022/02/27 00:01:11;;;;;;;16.17;6.90;;;;;;;2.58;83.78;102604.38;4943559;29;20456;-77
2022/02/27 00:03:38;;;;;;;13.13;5.97;;;;;;;2.58;83.90;102611.31;4943816;29;20039;-77
2022/02/27 00:06:04;;;;;;;12.68;6.38;;;;;;;2.58;84.00;102612.22;4941924;29;20044;-77
2022/02/27 00:08:29;;;;;;;15.90;6.25;;;;;;;2.61;84.09;102606.28;4944439;29;20051;-77
2022/02/27 00:10:55;;;;;;;12.75;6.72;;;;;;;2.58;83.69;102606.09;4942472;29;20509;-77
2022/02/27 00:13:20;;;;;;;13.90;6.32;;;;;;;2.60;83.95;102610.59;4945147;29;20421;-77
2022/02/27 00:15:45;;;;;;;13.50;6.10;;;;;;;2.62;83.68;102601.16;4942045;29;20459;-77
2022/02/27 00:18:11;;;;;;;12.60;6.15;;;;;;;2.66;83.59;102606.56;4944690;29;20491;-77
2022/02/27 00:20:36;;;;;;;12.35;5.95;;;;;;;2.66;83.78;102602.22;4942114;29;20496;-77
2022/02/27 00:23:01;;;;;;;12.43;6.35;;;;;;;2.67;83.65;102610.94;4943214;29;20616;-77
2022/02/27 00:25:27;;;;;;;11.40;5.95;;;;;;;2.70;83.66;102601.63;4943661;29;20035;-77
2022/02/27 00:27:53;;;;;;;19.95;7.95;;;;;;;2.77;84.09;102600.25;4945376;28;20162;-77
2022/02/27 00:30:20;;;;;;;15.90;7.28;;;;;;;2.86;84.00;102603.41;4946029;28;20058;-77
2022/02/27 00:32:45;;;;;;;17.63;7.78;;;;;;;2.93;83.77;102608.16;4942462;29;20496;-78
2022/02/27 00:35:11;;;;;;;16.48;6.70;;;;;;;2.99;84.15;102605.03;4942757;29;20219;-77
2022/02/27 00:37:37;;;;;;;15.50;8.32;;;;;;;3.03;83.36;102591.34;4945655;28;20027;-77
2022/02/27 00:40:05;;;;;;;13.75;7.78;;;;;;;3.00;83.49;102599.88;4928060;29;20028;-77
2022/02/27 00:42:31;;;;;;;17.27;7.70;;;;;;;2.97;83.65;102598.81;4947014;29;20419;-77
2022/02/27 00:44:57;;;;;;;13.55;7.25;;;;;;;2.93;82.96;102600.34;4946252;29;20040;-77
2022/02/27 00:47:22;;;;;;;18.50;7.97;;;;;;;2.84;83.18;102598.09;4947822;29;20054;-77
2022/02/27 00:49:49;;;;;;;21.52;8.77;;;;;;;2.80;83.59;102598.75;4943651;29;20500;-77
2022/02/27 00:52:18;;;;;;;18.00;7.50;;;;;;;2.80;83.39;102592.59;4946843;29;20042;-77
2022/02/27 00:54:43;;;;;;;17.52;8.00;;;;;;;2.72;83.32;102593.88;4946958;29;20515;-77
2022/02/27 00:57:10;;;;;;;20.48;7.80;;;;;;;2.65;83.53;102590.03;4947310;28;20082;-77
2022/02/27 00:59:37;;;;;;;20.05;8.32;;;;;;;2.62;83.86;102588.13;4928049;29;20444;-77
2022/02/27 01:02:03;;;;;;;14.32;7.55;;;;;;;2.58;83.73;102591.34;4945216;29;20040;-77
2022/02/27 01:04:29;;;;;;;17.33;8.10;;;;;;;2.54;83.61;102589.38;4929712;29;20518;-77
2022/02/27 01:06:54;;;;;;;12.25;7.72;;;;;;;2.46;83.93;102589.72;4944845;29;20745;-77
2022/02/27 01:09:20;;;;;;;14.52;8.15;;;;;;;2.41;83.82;102586.81;4930287;29;20491;-77
2022/02/27 01:11:45;;;;;;;14.93;8.38;;;;;;;2.31;83.86;102593.22;4928504;29;20042;-77
2022/02/27 01:14:11;;;;;;;19.52;10.93;;;;;;;2.28;83.91;102594.72;4929089;29;20027;-77
2022/02/27 01:16:36;;;;;;;15.32;8.82;;;;;;;2.21;83.94;102597.78;4945222;29;20059;-77
2022/02/27 01:19:01;;;;;;;19.70;9.15;;;;;;;2.10;83.46;102595.41;4947288;28;20114;-77
2022/02/27 01:21:27;;;;;;;18.42;8.52;;;;;;;2.04;83.97;102599.34;4944488;29;20350;-77
2022/02/27 01:23:52;;;;;;;17.05;8.77;;;;;;;1.93;84.43;102593.47;4945102;29;20039;-77
2022/02/27 01:26:18;;;;;;;18.20;7.85;;;;;;;1.87;85.09;102603.50;4929214;29;20045;-77
2022/02/27 01:28:43;;;;;;;14.45;7.32;;;;;;;1.80;85.27;102591.81;4938092;28;20074;-77
2022/02/27 01:31:09;;;;;;;14.27;7.43;;;;;;;1.78;85.26;102600.31;4946138;28;20039;-77
2022/02/27 01:33:36;;;;;;;12.50;6.70;;;;;;;1.80;85.34;102598.72;4922628;29;20512;-77
2022/02/27 01:36:02;;;;;;;12.10;6.90;;;;;;;1.81;85.15;102593.63;4944660;29;20036;-77
2022/02/27 01:38:28;;;;;;;16.38;7.53;;;;;;;1.84;85.46;102603.31;4944603;29;20408;-77
2022/02/27 01:40:53;;;;;;;14.07;6.55;;;;;;;1.87;85.32;102601.81;4945947;28;20040;-77
2022/02/27 01:43:20;;;;;;;17.23;7.80;;;;;;;1.90;85.22;102594.19;4946580;29;20054;-77
2022/02/27 01:45:48;;;;;;;16.15;7.72;;;;;;;1.92;85.08;102599.50;4945144;29;20046;-77
2022/02/27 01:48:13;;;;;;;17.30;7.03;;;;;;;1.93;85.05;102591.75;4945132;29;20043;-77
2022/02/27 01:50:39;;;;;;;19.52;8.55;;;;;;;1.90;84.74;102596.78;4942430;29;20587;-77
2022/02/27 01:53:04;;;;;;;15.27;6.78;;;;;;;1.86;84.96;102597.41;4946198;29;20046;-77
2022/02/27 01:55:33;;;;;;;14.07;7.10;;;;;;;1.86;84.56;102599.09;4928452;28;20051;-77
2022/02/27 01:58:00;;;;;;;19.00;8.45;;;;;;;1.78;84.68;102587.31;4931062;29;20416;-77
2022/02/27 02:00:26;;;;;;;15.30;6.88;;;;;;;1.71;84.82;102596.44;4955377;28;20027;-77
2022/02/27 02:02:51;;;;;;;15.00;8.10;;;;;;;1.64;84.95;102594.25;4945703;29;20046;-77
2022/02/27 02:05:17;;;;;;;15.10;6.85;;;;;;;1.56;85.20;102588.56;4944550;29;20044;-77
2022/02/27 02:07:44;;;;;;;17.30;7.90;;;;;;;1.46;84.96;102596.59;4945180;29;20133;-77
2022/02/27 02:10:10;;;;;;;14.45;7.35;;;;;;;1.39;85.30;102599.59;4943375;28;20205;-77
2022/02/27 02:12:39;;;;;;;12.82;7.72;;;;;;;1.31;84.94;102599.13;4944082;29;20047;-77
2022/02/27 02:15:05;;;;;;;15.20;7.72;;;;;;;1.25;85.27;102599.59;4945401;29;20070;-77
2022/02/27 02:17:31;;;;;;;12.85;7.15;;;;;;;1.11;85.68;102597.81;4942403;29;20055;-76
2022/02/27 02:19:57;;;;;;;15.00;8.00;;;;;;;1.04;85.43;102593.91;4946184;28;20042;-77
2022/02/27 02:22:23;;;;;;;15.73;8.23;;;;;;;0.94;85.44;102588.00;4943191;29;20043;-77
2022/02/27 02:24:49;;;;;;;17.88;7.18;;;;;;;0.86;86.05;102591.03;4943744;29;20041;-77
2022/02/27 02:27:15;;;;;;;22.25;8.70;;;;;;;0.80;86.16;102584.50;4929852;29;20039;-77
2022/02/27 02:29:40;;;;;;;17.05;8.48;;;;;;;0.77;86.37;102590.41;4943081;29;20039;-77
2022/02/27 02:32:10;;;;;;;17.25;7.13;;;;;;;0.75;86.34;102584.19;4924420;29;20416;-77
2022/02/27 02:34:36;;;;;;;14.80;7.97;;;;;;;0.78;86.50;102589.59;4942939;29;20051;-77
2022/02/27 02:37:01;;;;;;;16.77;7.70;;;;;;;0.84;86.87;102583.91;4928975;29;20051;-77
2022/02/27 02:39:30;;;;;;;13.98;7.72;;;;;;;0.92;86.79;102585.31;4944723;29;20046;-77
2022/02/27 02:41:57;;;;;;;13.82;7.75;;;;;;;0.99;86.72;102581.41;4945581;28;20278;-76
2022/02/27 02:44:27;;;;;;;15.70;7.80;;;;;;;1.03;87.01;102593.81;4927755;29;20042;-76
2022/02/27 02:46:52;;;;;;;13.02;7.28;;;;;;;1.05;86.50;102581.81;4945836;29;20031;-76
2022/02/27 02:49:18;;;;;;;14.10;7.20;;;;;;;1.14;87.02;102582.41;4943302;28;20519;-77
2022/02/27 02:51:49;;;;;;;14.93;7.28;;;;;;;1.22;87.15;102581.19;4942201;29;20036;-77
2022/02/27 02:54:14;;;;;;;13.88;6.95;;;;;;;1.30;87.16;102590.38;4928614;29;20507;-77
2022/02/27 02:56:41;;;;;;;13.20;7.22;;;;;;;1.35;86.45;102582.00;4942831;29;20043;-77
2022/02/27 02:59:06;;;;;;;14.85;8.15;;;;;;;1.42;87.00;102579.88;4944359;28;20491;-77
2022/02/27 03:01:32;;;;;;;15.68;7.97;;;;;;;1.48;86.76;102584.56;4943785;29;20106;-77
2022/02/27 03:03:57;;;;;;;15.13;7.38;;;;;;;1.49;86.61;102581.16;4943134;29;20047;-77
2022/02/27 03:06:23;;;;;;;15.82;8.02;;;;;;;1.49;86.42;102587.28;4945566;29;20082;-77
2022/02/27 03:08:50;;;;;;;15.13;8.18;;;;;;;1.53;86.47;102590.97;4943023;29;20043;-76
2022/02/27 03:11:18;;;;;;;22.10;8.80;;;;;;;1.57;86.51;102582.53;4944093;28;20040;-77
2022/02/27 03:13:44;;;;;;;14.70;7.40;;;;;;;1.59;86.96;102580.94;4946127;29;20051;-76
2022/02/27 03:16:10;;;;;;;15.88;7.07;;;;;;;1.65;86.69;102581.34;4942467;29;20090;-77
2022/02/27 03:18:35;;;;;;;13.02;8.02;;;;;;;1.77;86.61;102593.31;4943282;29;20035;-77
2022/02/27 03:21:03;;;;;;;16.88;7.95;;;;;;;1.86;86.86;102587.00;4943661;29;20036;-77
2022/02/27 03:23:30;;;;;;;18.13;8.93;;;;;;;1.94;86.51;102590.97;4941511;29;20126;-76
2022/02/27 03:25:56;;;;;;;12.77;7.70;;;;;;;2.03;86.51;102587.13;4945302;29;20666;-77
2022/02/27 03:28:21;;;;;;;15.65;8.05;;;;;;;2.09;85.66;102587.50;4942986;29;20063;-77
2022/02/27 03:30:46;;;;;;;18.52;8.27;;;;;;;2.06;86.04;102593.41;4943384;28;20039;-77
2022/02/27 03:33:12;;;;;;;15.90;8.27;;;;;;;2.04;86.25;102595.03;4944411;29;20046;-77
2022/02/27 03:35:38;;;;;;;16.27;9.48;;;;;;;2.05;86.54;102599.44;4942169;29;20043;-77
2022/02/27 03:38:04;;;;;;;20.08;8.85;;;;;;;2.09;86.46;102596.19;4944793;28;20031;-77
2022/02/27 03:40:30;;;;;;;16.00;7.78;;;;;;;2.12;86.29;102593.81;4912549;28;20091;-76
2022/02/27 03:42:55;;;;;;;13.98;8.55;;;;;;;2.06;86.28;102593.41;4945489;29;20042;-77
2022/02/27 03:45:22;;;;;;;14.73;7.55;;;;;;;2.09;86.54;102601.41;4942122;29;20035;-77
2022/02/27 03:47:47;;;;;;;13.68;8.43;;;;;;;2.10;86.19;102605.84;4944982;29;20061;-77
2022/02/27 03:50:15;;;;;;;17.52;8.73;;;;;;;2.09;86.13;102598.81;4942774;28;20568;-77
2022/02/27 03:52:41;;;;;;;15.95;7.72;;;;;;;2.08;85.84;102607.44;4942780;29;20039;-77
2022/02/27 03:55:10;;;;;;;17.77;8.82;;;;;;;2.09;85.89;102601.41;4944882;29;20094;-76
2022/02/27 03:57:36;;;;;;;13.23;7.75;;;;;;;2.06;86.23;102603.84;4942413;29;20043;-77
2022/02/27 04:00:07;;;;;;;14.40;7.65;;;;;;;2.10;86.41;102603.22;4943378;28;20038;-76
2022/02/27 04:02:38;;;;;;;15.32;7.75;;;;;;;2.08;85.97;102607.44;4928896;29;20118;-77
2022/02/27 04:05:04;;;;;;;16.88;8.23;;;;;;;2.10;86.70;102604.94;4944049;29;20143;-77
2022/02/27 04:07:29;;;;;;;16.35;8.52;;;;;;;2.11;86.55;102599.81;4943466;29;20036;-77
2022/02/27 04:09:55;;;;;;;13.18;7.97;;;;;;;2.17;86.29;102600.22;4941993;28;20556;-77
2022/02/27 04:12:21;;;;;;;18.40;8.13;;;;;;;2.17;86.15;102602.81;4947668;28;20492;-77
2022/02/27 04:14:46;;;;;;;15.98;7.90;;;;;;;2.25;86.13;102610.16;4948291;29;20047;-77
2022/02/27 04:17:11;;;;;;;14.90;7.32;;;;;;;2.29;86.00;102605.25;4947122;29;20075;-77
2022/02/27 04:19:36;;;;;;;12.63;7.00;;;;;;;2.31;86.14;102610.56;4946584;29;20054;-76
2022/02/27 04:22:02;;;;;;;16.33;8.45;;;;;;;2.35;85.84;102615.13;4948104;29;20129;-76
2022/02/27 04:24:27;;;;;;;15.90;8.25;;;;;;;2.36;85.74;102615.25;4945467;29;20114;-77
2022/02/27 04:26:53;;;;;;;18.00;9.20;;;;;;;2.44;85.62;102609.56;4930588;29;20042;-77
2022/02/27 04:29:18;;;;;;;15.35;8.15;;;;;;;2.41;84.89;102612.88;4946810;29;20451;-77
2022/02/27 04:31:44;;;;;;;12.60;8.05;;;;;;;2.41;85.07;102608.59;4949185;29;20031;-77
2022/02/27 04:34:09;;;;;;;17.85;7.93;;;;;;;2.37;85.20;102609.22;4948335;29;20069;-77
2022/02/27 04:36:35;;;;;;;15.32;8.15;;;;;;;2.38;84.62;102607.50;4945577;29;20035;-76
2022/02/27 04:39:00;;;;;;;19.10;9.00;;;;;;;2.38;85.16;102608.41;4949477;28;20058;-76
2022/02/27 04:41:26;;;;;;;15.43;8.98;;;;;;;2.40;84.70;102616.31;4952837;28;20035;-77
2022/02/27 04:43:51;;;;;;;15.88;7.65;;;;;;;2.42;84.87;102597.34;4947767;29;20035;-76
2022/02/27 04:46:16;;;;;;;16.27;8.90;;;;;;;2.46;84.81;102598.44;4945329;29;20045;-77
2022/02/27 04:48:42;;;;;;;13.90;8.40;;;;;;;2.41;84.84;102602.47;4948680;28;20030;-77
2022/02/27 04:51:08;;;;;;;18.40;8.05;;;;;;;2.44;85.10;102613.09;4946409;29;20039;-77
2022/02/27 04:53:34;;;;;;;14.32;8.57;;;;;;;2.48;84.76;102607.25;4946486;29;20050;-77
2022/02/27 04:56:00;;;;;;;16.75;8.57;;;;;;;2.45;84.84;102614.88;4944951;29;20040;-77
2022/02/27 04:58:26;;;;;;;18.42;8.30;;;;;;;2.48;84.97;102622.00;4949138;28;20035;-77
2022/02/27 05:00:51;;;;;;;16.77;8.90;;;;;;;2.46;84.64;102619.28;4950206;28;20046;-77
2022/02/27 05:03:16;;;;;;;17.58;8.70;;;;;;;2.46;84.54;102621.88;4945850;29;20381;-77
2022/02/27 05:05:42;;;;;;;13.38;8.60;;;;;;;2.47;84.48;102618.50;4947505;29;20039;-77
2022/02/27 05:08:07;;;;;;;17.67;8.60;;;;;;;2.49;84.33;102615.97;4944646;29;20096;-76
2022/02/27 05:10:33;;;;;;;16.52;8.25;;;;;;;2.43;84.16;102616.50;4946977;28;20101;-77
2022/02/27 05:12:58;;;;;;;18.98;9.32;;;;;;;2.43;84.46;102616.50;4947401;29;20098;-77
2022/02/27 05:15:24;;;;;;;18.02;8.70;;;;;;;2.44;84.42;102617.38;4946918;29;20046;-77
2022/02/27 05:17:49;;;;;;;16.98;8.80;;;;;;;2.49;84.83;102621.16;4944536;29;20527;-77
2022/02/27 05:20:14;;;;;;;16.05;8.70;;;;;;;2.53;84.02;102624.06;4949272;29;20027;-76
2022/02/27 05:22:44;;;;;;;17.17;8.68;;;;;;;2.52;84.45;102637.03;4945684;28;20039;-77
2022/02/27 05:25:11;;;;;;;17.85;9.52;;;;;;;2.50;83.95;102638.63;4946896;29;20051;-77
2022/02/27 05:27:36;;;;;;;15.82;8.27;;;;;;;2.49;84.08;102642.94;4944384;29;20512;-77
2022/02/27 05:30:02;;;;;;;17.88;9.63;;;;;;;2.43;83.26;102650.38;4946854;28;20090;-76
2022/02/27 05:32:28;;;;;;;18.95;8.93;;;;;;;2.30;83.29;102653.94;4945351;29;20412;-76
2022/02/27 05:34:53;;;;;;;15.48;8.57;;;;;;;2.13;83.20;102657.22;4945298;29;20040;-77
2022/02/27 05:37:18;;;;;;;14.27;7.93;;;;;;;1.95;83.56;102651.75;4947016;29;20126;-77
2022/02/27 05:39:44;;;;;;;16.33;8.27;;;;;;;1.74;83.42;102661.72;4944151;29;20050;-77
2022/02/27 05:42:10;;;;;;;15.70;8.38;;;;;;;1.57;83.38;102663.22;4948530;28;20368;-77
2022/02/27 05:44:35;;;;;;;16.75;8.57;;;;;;;1.37;83.49;102666.25;4945661;29;20083;-76
2022/02/27 05:47:01;;;;;;;18.30;9.02;;;;;;;1.19;83.86;102674.66;4944620;29;20563;-76
2022/02/27 05:49:26;;;;;;;17.77;9.13;;;;;;;1.02;84.10;102670.94;4946852;29;20046;-77
2022/02/27 05:51:51;;;;;;;16.98;9.45;;;;;;;0.88;84.41;102682.09;4944003;29;20031;-76
2022/02/27 05:54:17;;;;;;;15.88;9.20;;;;;;;0.73;84.62;102684.53;4945857;29;20089;-76
2022/02/27 05:56:42;;;;;;;17.88;9.55;;;;;;;0.62;85.06;102689.00;4945857;29;20129;-76
2022/02/27 05:59:07;;;;;;;21.48;9.73;;;;;;;0.55;85.60;102692.00;4944039;28;20067;-76
2022/02/27 06:01:33;;;;;;;18.33;8.50;;;;;;;0.52;85.75;102699.56;4937323;29;20039;-76
2022/02/27 06:03:58;;;;;;;17.70;8.45;;;;;;;0.62;86.12;102698.50;4946198;29;20039;-76
2022/02/27 06:06:23;;;;;;;13.15;7.75;;;;;;;0.84;86.92;102700.91;4945125;29;20043;-76
2022/02/27 06:08:49;;;;;;;16.23;10.15;;;;;;;1.09;86.86;102693.03;4944389;29;20075;-76
2022/02/27 06:11:14;;;;;;;22.15;9.52;;;;;;;1.30;86.57;102694.47;4946080;28;20081;-76
2022/02/27 06:13:39;;;;;;;18.60;8.70;;;;;;;1.47;86.48;102689.47;4943639;29;20036;-76
2022/02/27 06:16:05;;;;;;;18.85;9.88;;;;;;;1.60;86.37;102694.69;4945612;29;20114;-76
2022/02/27 06:18:30;;;;;;;16.65;9.95;;;;;;;1.73;86.59;102702.47;4945240;29;20121;-76
2022/02/27 06:20:55;;;;;;;19.67;9.63;;;;;;;1.90;86.08;102700.94;4943827;28;20036;-77
2022/02/27 06:23:21;;;;;;;22.27;11.40;;;;;;;2.02;85.80;102706.03;4946341;29;20039;-77
2022/02/27 06:25:46;;;;;;;17.15;9.40;;;;;;;2.17;85.31;102701.81;4943638;29;20039;-77
2022/02/27 06:28:11;;;;;;;18.00;9.93;;;;;;;2.26;84.95;102705.78;4945221;29;20031;-76
2022/02/27 06:30:37;;;;;;;18.17;10.00;;;;;;;2.36;85.09;102701.25;4944892;28;20130;-76
2022/02/27 06:33:02;;;;;;;23.98;10.63;;;;;;;2.51;85.09;102698.66;4943356;29;20127;-77
2022/02/27 06:35:28;;;;;;;28.35;13.27;;;;;;;2.61;84.47;102700.13;4945131;29;20042;-77
2022/02/27 06:37:53;;;;;;;27.33;13.40;;;;;;;2.71;85.01;102701.59;4943804;29;20056;-77
2022/02/27 06:40:19;;;;;;;29.67;14.43;;;;;;;2.84;84.33;102704.13;4944890;28;20023;-76
2022/02/27 06:42:46;;;;;;;33.35;14.25;;;;;;;2.92;84.16;102705.47;4946222;29;20048;-77
2022/02/27 06:45:12;;;;;;;37.75;15.48;;;;;;;3.00;83.88;102705.94;4950230;28;20082;-77
2022/02/27 06:47:38;;;;;;;36.05;17.38;;;;;;;3.04;84.05;102708.84;4946597;28;20039;-77
2022/02/27 06:50:05;;;;;;;34.30;15.75;;;;;;;3.13;84.02;102707.56;4936006;29;20032;-77
2022/02/27 06:52:30;;;;;;;43.72;18.55;;;;;;;3.11;83.67;102709.19;4946333;28;20538;-77
2022/02/27 06:54:55;;;;;;;31.00;16.63;;;;;;;3.12;83.91;102708.38;4942836;29;20047;-77
2022/02/27 06:57:21;;;;;;;35.80;16.52;;;;;;;3.12;83.83;102718.81;4945529;29;20043;-77
2022/02/27 06:59:46;;;;;;;32.05;15.77;;;;;;;3.14;84.32;102714.59;4942767;28;20039;-76
2022/02/27 07:02:12;;;;;;;34.10;15.52;;;;;;;3.20;83.92;102714.97;4944145;29;20047;-77
2022/02/27 07:04:38;;;;;;;34.72;17.15;;;;;;;3.27;84.13;102712.81;4943114;29;20500;-76
2022/02/27 07:07:10;;;;;;;35.58;16.88;;;;;;;3.29;83.26;102715.47;5057398;27;20380;-76
2022/02/27 07:09:35;;;;;;;29.77;15.68;;;;;;;3.36;83.43;102712.44;5039421;28;20529;-76
2022/02/27 07:12:01;;;;;;;31.10;17.42;;;;;;;3.40;83.61;102711.78;5013572;28;20460;-77
2022/02/27 07:14:26;;;;;;;35.78;16.17;;;;;;;3.51;83.13;102717.63;5017844;28;20462;-76
2022/02/27 07:16:51;;;;;;;29.73;16.83;;;;;;;3.59;82.66;102712.84;5013813;28;20030;-76
2022/02/27 07:19:17;;;;;;;30.00;16.45;;;;;;;3.65;82.95;102721.94;5015616;28;20046;-76
2022/02/27 07:21:43;;;;;;;28.92;16.83;;;;;;;3.68;82.46;102726.44;5015176;28;20120;-77
2022/02/27 07:24:09;;;;;;;32.63;17.52;;;;;;;3.74;82.51;102732.88;5013945;28;20041;-76
2022/02/27 07:26:34;;;;;;;34.22;17.20;;;;;;;3.83;82.27;102732.53;5016540;28;20022;-76
2022/02/27 07:28:59;;;;;;;31.38;17.45;;;;;;;3.87;82.03;102734.50;5013893;28;20034;-76
2022/02/27 07:31:25;;;;;;;39.03;17.52;;;;;;;3.87;81.91;102738.81;5014905;28;20038;-77
2022/02/27 07:33:50;;;;;;;37.95;18.45;;;;;;;3.93;81.77;102731.34;5015590;28;20131;-76
2022/02/27 07:36:16;;;;;;;34.30;17.95;;;;;;;3.90;81.48;102734.69;5013509;28;20030;-76
2022/02/27 07:38:42;;;;;;;29.67;17.63;;;;;;;3.94;81.70;102739.25;5013274;28;20058;-76
2022/02/27 07:41:07;;;;;;;40.78;18.92;;;;;;;3.88;81.11;102738.91;5012818;28;20042;-77
2022/02/27 07:43:32;;;;;;;36.22;19.38;;;;;;;3.98;82.03;102736.81;5014962;28;20034;-77
2022/02/27 07:45:58;;;;;;;31.95;18.00;;;;;;;4.14;81.61;102740.38;5013726;28;20088;-76
2022/02/27 07:48:23;;;;;;;30.52;18.52;;;;;;;4.33;81.12;102747.50;5016239;28;20041;-76
2022/02/27 07:50:48;;;;;;;30.15;17.23;;;;;;;4.44;80.86;102749.81;5013437;28;20045;-76
2022/02/27 07:53:14;;;;;;;31.90;17.52;;;;;;;4.55;80.22;102751.28;5014739;28;20120;-77
2022/02/27 07:55:39;;;;;;;31.45;18.85;;;;;;;4.61;79.83;102751.59;5015162;28;20033;-76
2022/02/27 07:58:04;;;;;;;32.10;18.17;;;;;;;4.65;79.58;102739.59;5011964;28;20072;-76
2022/02/27 08:00:30;;;;;;;34.72;19.00;;;;;;;4.72;79.05;102742.63;5016029;28;20033;-76
2022/02/27 08:02:55;;;;;;;31.20;18.38;;;;;;;4.82;79.89;102750.16;5013299;28;20074;-77
2022/02/27 08:05:21;;;;;;;30.17;18.35;;;;;;;4.94;78.80;102744.66;5014521;28;20041;-76
2022/02/27 08:07:46;;;;;;;32.20;18.73;;;;;;;5.04;78.57;102746.03;5015154;28;20104;-77
2022/02/27 08:10:12;;;;;;;33.33;19.02;;;;;;;5.16;78.13;102745.75;5017371;28;20033;-76
2022/02/27 08:12:45;;;;;;;35.10;18.42;;;;;;;5.18;77.85;102745.00;5011919;28;20131;-77
2022/02/27 08:15:12;;;;;;;29.92;18.77;;;;;;;5.10;77.53;102754.19;5013821;28;20038;-76
2022/02/27 08:17:38;;;;;;;32.13;20.83;;;;;;;5.05;77.82;102748.72;5006514;28;20091;-77
2022/02/27 08:20:04;;;;;;;32.78;20.10;;;;;;;5.07;78.04;102756.66;4999874;28;20123;-76
2022/02/27 08:22:29;;;;;;;30.80;18.58;;;;;;;5.13;77.97;102754.34;5001212;28;20037;-77
2022/02/27 08:24:55;;;;;;;35.15;22.15;;;;;;;5.19;78.44;102753.78;5001471;28;20125;-76
2022/02/27 08:27:20;;;;;;;33.35;19.67;;;;;;;5.41;77.97;102753.16;4999755;28;20539;-76
2022/02/27 08:29:46;;;;;;;33.05;20.00;;;;;;;5.46;77.64;102751.66;5002554;28;20395;-76
2022/02/27 08:32:11;;;;;;;35.33;19.67;;;;;;;5.43;76.40;102751.50;4999832;28;20113;-77
2022/02/27 08:34:36;;;;;;;39.92;20.80;;;;;;;5.42;75.87;102750.63;5001037;28;20064;-76
2022/02/27 08:37:02;;;;;;;33.80;20.30;;;;;;;5.39;76.26;102755.69;5001639;28;20030;-77
2022/02/27 08:39:27;;;;;;;29.70;18.45;;;;;;;5.42;76.74;102749.69;4999328;28;20455;-76
2022/02/27 08:41:53;;;;;;;34.78;21.27;;;;;;;5.57;76.07;102745.22;4999138;28;20556;-77
2022/02/27 08:44:18;;;;;;;38.78;23.13;;;;;;;5.76;75.64;102739.16;5000170;28;20030;-76
2022/02/27 08:46:43;;;;;;;35.95;20.10;;;;;;;6.02;75.44;102743.09;5000550;28;20038;-77
2022/02/27 08:49:09;;;;;;;37.17;20.52;;;;;;;5.99;74.89;102745.56;5003647;28;20125;-77
2022/02/27 08:51:34;;;;;;;34.38;20.80;;;;;;;6.02;74.35;102731.72;5000784;28;20038;-77
2022/02/27 08:54:02;;;;;;;35.15;20.40;;;;;;;6.11;74.38;102735.66;5001808;28;20094;-77
2022/02/27 08:56:28;;;;;;;36.53;22.00;;;;;;;6.26;73.95;102734.56;5000439;28;20034;-76
2022/02/27 08:58:53;;;;;;;37.25;22.48;;;;;;;6.24;74.34;102736.25;4999732;28;20057;-76
2022/02/27 09:01:18;;;;;;;33.88;20.45;;;;;;;6.12;74.08;102732.22;5002323;28;20084;-77
2022/02/27 09:03:44;;;;;;;34.50;20.50;;;;;;;6.10;74.18;102741.75;5000800;28;20041;-76
2022/02/27 09:06:09;;;;;;;33.30;20.23;;;;;;;5.98;73.80;102738.53;5002540;28;20052;-76
2022/02/27 09:08:35;;;;;;;35.00;21.27;;;;;;;5.81;74.52;102734.16;5000168;28;20038;-76
2022/02/27 09:11:00;;;;;;;31.65;19.65;;;;;;;5.72;75.05;102738.13;5001234;28;20507;-77
2022/02/27 09:13:26;;;;;;;36.70;19.70;;;;;;;5.66;75.17;102740.47;4998853;28;20038;-77
2022/02/27 09:15:51;;;;;;;36.58;20.42;;;;;;;5.60;75.32;102740.13;5001349;28;20045;-76
2022/02/27 09:18:16;;;;;;;34.28;21.60;;;;;;;5.46;75.74;102741.19;4998496;28;20044;-77
2022/02/27 09:20:44;;;;;;;32.67;20.48;;;;;;;5.31;75.85;102743.03;4998010;28;20042;-76
2022/02/27 09:23:09;;;;;;;34.95;20.42;;;;;;;5.22;75.93;102735.63;5001483;28;20046;-77
2022/02/27 09:25:35;;;;;;;33.45;19.30;;;;;;;5.13;75.89;102741.25;4998757;28;20037;-77
2022/02/27 09:28:00;;;;;;;32.08;19.55;;;;;;;5.19;76.33;102741.59;5000267;28;20077;-76
2022/02/27 09:30:25;;;;;;;30.17;18.02;;;;;;;5.23;75.93;102737.41;4999598;28;20045;-76
2022/02/27 09:32:51;;;;;;;32.72;19.20;;;;;;;5.19;76.11;102736.34;4998750;28;20040;-77
2022/02/27 09:35:16;;;;;;;27.85;17.45;;;;;;;5.17;75.95;102738.00;5004925;28;20038;-76
2022/02/27 09:37:43;;;;;;;27.40;15.90;;;;;;;5.28;75.56;102736.81;4998956;28;20042;-77
2022/02/27 09:40:09;;;;;;;30.55;18.55;;;;;;;5.32;75.79;102743.13;4999798;28;20500;-77
2022/02/27 09:42:35;;;;;;;26.63;15.93;;;;;;;5.41;75.56;102737.44;5012583;28;20038;-77
2022/02/27 09:45:01;;;;;;;29.70;17.00;;;;;;;5.52;74.76;102740.59;5001365;28;20515;-76
2022/02/27 09:47:27;;;;;;;27.08;16.35;;;;;;;5.59;74.47;102733.13;4997615;28;20523;-76
2022/02/27 09:49:53;;;;;;;26.05;16.05;;;;;;;5.58;73.54;102736.56;4998445;28;20038;-76
2022/02/27 09:52:20;;;;;;;24.30;16.02;;;;;;;5.58;73.60;102738.25;5000340;28;20091;-77
2022/02/27 09:54:46;;;;;;;24.63;14.27;;;;;;;5.69;73.49;102734.47;4998167;28;20042;-77
2022/02/27 09:57:17;;;;;;;23.25;13.82;;;;;;;5.78;71.37;102723.53;4999564;28;20034;-77
2022/02/27 09:59:42;;;;;;;22.50;12.25;;;;;;;5.87;70.35;102722.25;5000061;28;20510;-76
2022/02/27 10:02:08;;;;;;;20.38;11.95;;;;;;;6.01;69.36;102722.94;4998211;28;20030;-77
2022/02/27 10:04:35;;;;;;;18.35;10.00;;;;;;;6.18;68.68;102726.34;5001126;28;20046;-76
2022/02/27 10:07:06;;;;;;;19.88;11.30;;;;;;;6.18;63.76;102722.84;4998667;28;20518;-77
2022/02/27 10:09:31;;;;;;;15.25;10.20;;;;;;;6.34;66.13;102727.97;4998619;28;20145;-76
2022/02/27 10:12:15;;;;;;;14.40;9.00;;;;;;;6.40;61.43;102728.25;5015882;28;20120;-77
2022/02/27 10:14:41;;;;;;;13.40;8.32;;;;;;;6.51;62.85;102719.16;5000834;28;20041;-76
2022/02/27 10:17:06;;;;;;;13.60;6.93;;;;;;;6.58;57.66;102717.72;4996560;28;20114;-76
2022/02/27 10:19:36;;;;;;;10.13;6.22;;;;;;;6.78;58.64;102716.84;4996449;28;20037;-76
2022/02/27 10:22:03;;;;;;;9.85;5.30;;;;;;;6.94;58.76;102712.28;5003264;28;20560;-77
2022/02/27 10:24:28;;;;;;;8.70;5.78;;;;;;;7.06;58.22;102718.06;5001454;28;20129;-76
2022/02/27 10:26:54;;;;;;;12.32;7.05;;;;;;;7.10;57.54;102709.50;4997947;28;20035;-76
2022/02/27 10:29:21;;;;;;;11.30;6.80;;;;;;;7.18;58.15;102716.00;4999728;28;20042;-76
2022/02/27 10:31:52;;;;;;;9.43;5.22;;;;;;;7.31;55.68;102714.78;5014625;28;20086;-77
2022/02/27 10:34:25;;;;;;;8.50;5.20;;;;;;;7.36;54.43;102705.38;4997542;28;20087;-76
2022/02/27 10:36:55;;;;;;;8.80;5.28;;;;;;;7.42;54.35;102712.59;4998859;28;20579;-76
2022/02/27 10:39:33;;;;;;;9.98;5.07;;;;;;;7.59;54.42;102708.03;5000520;28;20037;-76
2022/02/27 10:42:27;;;;;;;7.72;5.55;;;;;;;7.72;52.60;102699.81;4999114;28;20035;-76
2022/02/27 10:44:54;;;;;;;8.15;5.80;;;;;;;7.72;50.91;102699.81;5012090;28;20042;-76
2022/02/27 10:47:23;;;;;;;7.78;5.13;;;;;;;7.66;51.88;102702.19;4997526;28;20072;-76
2022/02/27 10:49:51;;;;;;;7.05;4.85;;;;;;;7.63;48.72;102696.81;4996975;28;20551;-76
2022/02/27 10:52:28;;;;;;;7.88;5.63;;;;;;;7.69;50.96;102697.06;4999760;28;20038;-76
2022/02/27 10:55:05;;;;;;;7.40;5.03;;;;;;;7.93;50.84;102693.59;4998552;28;20114;-76
2022/02/27 10:57:32;;;;;;;8.68;4.53;;;;;;;8.11;50.43;102696.94;4997355;28;20427;-76
2022/02/27 11:00:17;;;;;;;6.60;4.30;;;;;;;8.25;50.09;102685.25;4999579;28;20054;-76
2022/02/27 11:02:45;;;;;;;7.72;4.13;;;;;;;8.13;48.54;102695.28;5013108;28;20409;-77
2022/02/27 11:05:13;;;;;;;7.25;4.47;;;;;;;8.01;48.40;102685.16;4998390;28;20077;-76
2022/02/27 11:07:41;;;;;;;7.22;4.30;;;;;;;8.11;49.50;102675.91;4999914;28;20038;-76
2022/02/27 11:10:12;;;;;;;6.85;3.70;;;;;;;8.28;49.42;102674.81;4997402;28;20062;-76
2022/02/27 11:12:38;;;;;;;8.60;4.38;;;;;;;8.43;47.77;102666.63;4998203;28;20041;-76
2022/02/27 11:15:06;;;;;;;6.53;3.67;;;;;;;8.48;46.79;102672.94;4999769;28;20042;-76
2022/02/27 11:17:32;;;;;;;7.85;4.40;;;;;;;8.58;46.30;102673.31;4998987;28;20038;-76
2022/02/27 11:19:59;;;;;;;6.85;4.13;;;;;;;8.67;46.43;102668.34;5001075;28;20095;-76